logo
Search for airport 
image banner adimage banner adimage banner ad
image banner ad

LOIU - Innsbruck Uni-Klinik Kh

Located in District Innsbruck-Stadt, Austria

ICAO - , IATA -

Data provided by Airmate  

General information

Coordinates: N47°15'40" E11°23'5"
Elevation is 2057 feet MSL.
 
View others Airports in Tyrol

Operational data

Special qualification required
Current time UTC:
Current local time:
Weather at : LOWI - Innsbruck ( 3 km )
METAR: LOWI 150950Z VRB02KT 9999 -SHRA FEW060 SCT070 BKN100 16/09 Q1013 TEMPO SHRA
TAF: TAF LOWI 150515Z 1506/1606 27003KT 9999 SCT070 TX19/1512Z TN08/1606Z TEMPO 1509/1512 27015G25KT SHRA FEW060CB BKN090 BECMG 1510/1512 09007KT TEMPO 1512/1521 27020G40KT TSRA SCT050CB BKN070 BECMG 1516/1518 27006KT TEMPO 1521/1606 27015G30KT SHRA
View NOTAMs / SUP AIP / TFR affecting this airport [VIEW]
Communications frequencies: [VIEW]

Runways:

Airport contact information

Address: District Innsbruck-Stadt Austria

Satellite view of LOIU